Yass Linton Hostel, New South Wales

5:20 PM EST on August 28, 2014 (GMT +1000)
Urban environment | Change Station
CLOSE
Current Station
Personal Weather Station
Location: Yass, NEW SOUTH WALES
Elevation: 1709 ft
Nearby Weather Stations

Elev 1709 ft 34.85 °S, 148.91 °E | Updated 0 second ago

Clear
Clear
56.3 °F
Feels Like 56.3 °F
N
3.8
Wind Variable Wind from ENE
Gusts 6.9 mph

Today
High -- | Low -- °F
--% Chance of Precip.
Yesterday
High -- | Low -- °F
Precip. -- in
6:29 AM 5:42 PM
Waxing Crescent, 7% visible
Pressure 30.33 in
Visibility -9999.0 miles
Clouds
Dew Point 41 °F
Humidity 57%
Rainfall 0.00 in
Snow Depth Not available.
UV Not available.
Pollen Not available.
Air Quality Not available.
Flu Activity Not available.
METAR YSCB 280700Z 09009KT CAVOK 12/05 Q1027 NOSIG

More Conditions Fewer Conditions

Pressure 30.33 in
Visibility -9999.0 miles
Clouds
Dew Point 41 °F
Humidity 57%
Rainfall 0.00 in
Snow Depth Not available.
UV Not available.
Pollen Not available.
Air Quality Not available.
Flu Activity Not available.
METAR YSCB 280700Z 09009KT CAVOK 12/05 Q1027 NOSIG

More Conditions Fewer Conditions

10-Day Weather Forecast

Almanac

Astronomy

Aug. 28, 2014 Rise Set
Actual Time 6:29 AM EST 5:42 PM EST
Civil Twilight 6:03 AM EST 6:07 PM EST
Nautical Twilight 5:34 AM EST 6:37 PM EST
Astronomical Twilight 5:05 AM EST 7:06 PM EST
Moon 7:32 AM EST 8:08 PM EST
Length of Visible Light 12h 04m
Length of Day
11h 13m
Tomorrow will be 2m 1s longer.
Waxing Crescent, 7% of the Moon is Illuminated
Today
Waxing Crescent
Sep 2
First Quarter
Sep 8
Full
Sep 15
Last Quarter
Sep 24
New

Yesterday's Extremes

Country Highs Country Lows

Community

WunderPhotos

Upload Photos

1,747,912 photos uploaded!

Nearby

Snow Depth

Not available.

Earthquake Activity

City Distance Mag. Time & Date
No recent earthquake activity has been reported nearby.
Minimum magnitude displayed is 2.5.

Coastal Water Temperatures

Place Temperature
No Stations Reporting

Nearby Weather Stations